Terminal Aerodrome Forecast
Issued by NWS

Home | Current Version | Previous Version | Text Only | Print | Product List | Glossary On
Versions: 1 2 3 4 5 6 7 8 9 10 11 12 13 14 15 16 17 18 19
732
FTUS44 KLIX 011720
TAFMSY
TAF
KMSY 011720Z 0118/0218 23011KT P6SM SCT030 BKN040
     FM012200 24010KT P6SM VCTS SCT040CB BKN080
     FM020100 31009KT P6SM VCTS BKN040CB
     FM020200 36013G23KT P6SM BKN040
     FM021200 01014G24KT P6SM SCT150=

USA.gov is the U.S. government's official web portal to all federal, state and local government web resources and services.